sensor_id;sensor_type;location;lat;lon;timestamp;noise_LAeq;noise_LA_min;noise_LA_max;noise_LA01;noise_LA95
18377;Laerm;9315;52.624;13.544;2024-01-16T00:01:08;59.29;31.02;74.24;;
18377;Laerm;9315;52.624;13.544;2024-01-16T00:03:38;52.74;30.68;66.55;;
18377;Laerm;9315;52.624;13.544;2024-01-16T00:06:06;36.17;31.61;43.73;;
18377;Laerm;9315;52.624;13.544;2024-01-16T00:08:34;36.23;31.26;45.16;;
18377;Laerm;9315;52.624;13.544;2024-01-16T00:11:02;38.02;32.44;45.74;;
18377;Laerm;9315;52.624;13.544;2024-01-16T00:13:32;40.38;34.58;49.28;;
18377;Laerm;9315;52.624;13.544;2024-01-16T00:16:02;59.36;30.62;75.99;;
18377;Laerm;9315;52.624;13.544;2024-01-16T00:18:31;61.64;30.70;74.81;;
18377;Laerm;9315;52.624;13.544;2024-01-16T00:21:01;35.65;31.94;43.95;;
18377;Laerm;9315;52.624;13.544;2024-01-16T00:23:31;56.57;31.02;72.94;;
18377;Laerm;9315;52.624;13.544;2024-01-16T00:26:01;37.24;31.51;44.03;;
18377;Laerm;9315;52.624;13.544;2024-01-16T00:28:32;53.99;32.53;70.34;;
18377;Laerm;9315;52.624;13.544;2024-01-16T00:30:59;59.56;32.69;75.82;;
18377;Laerm;9315;52.624;13.544;2024-01-16T00:33:27;37.47;31.54;45.28;;
18377;Laerm;9315;52.624;13.544;2024-01-16T00:35:55;36.99;31.29;47.65;;
18377;Laerm;9315;52.624;13.544;2024-01-16T00:38:22;34.98;30.40;43.74;;
18377;Laerm;9315;52.624;13.544;2024-01-16T00:40:49;60.74;31.47;77.62;;
18377;Laerm;9315;52.624;13.544;2024-01-16T00:43:17;35.03;30.79;43.36;;
18377;Laerm;9315;52.624;13.544;2024-01-16T00:45:44;60.46;31.55;76.21;;
18377;Laerm;9315;52.624;13.544;2024-01-16T00:48:13;60.46;31.20;74.46;;
18377;Laerm;9315;52.624;13.544;2024-01-16T00:50:41;55.14;31.76;71.00;;
18377;Laerm;9315;52.624;13.544;2024-01-16T00:53:09;32.87;31.54;42.24;;
18377;Laerm;9315;52.624;13.544;2024-01-16T00:55:36;55.14;31.56;71.01;;
18377;Laerm;9315;52.624;13.544;2024-01-16T00:58:04;52.75;31.09;67.26;;
18377;Laerm;9315;52.624;13.544;2024-01-16T01:00:31;31.71;30.28;43.41;;
18377;Laerm;9315;52.624;13.544;2024-01-16T01:03:01;54.34;30.38;70.82;;
18377;Laerm;9315;52.624;13.544;2024-01-16T01:05:30;31.87;30.30;45.06;;
18377;Laerm;9315;52.624;13.544;2024-01-16T01:07:58;46.91;30.36;64.32;;
18377;Laerm;9315;52.624;13.544;2024-01-16T01:10:26;55.70;29.98;71.08;;
18377;Laerm;9315;52.624;13.544;2024-01-16T01:12:53;51.59;29.77;67.09;;
18377;Laerm;9315;52.624;13.544;2024-01-16T01:15:21;56.29;29.46;72.95;;
18377;Laerm;9315;52.624;13.544;2024-01-16T01:17:50;31.69;29.30;39.93;;
18377;Laerm;9315;52.624;13.544;2024-01-16T01:20:18;54.90;29.32;72.40;;
18377;Laerm;9315;52.624;13.544;2024-01-16T01:22:47;30.42;29.43;33.08;;
18377;Laerm;9315;52.624;13.544;2024-01-16T01:25:14;31.11;29.12;37.50;;
18377;Laerm;9315;52.624;13.544;2024-01-16T01:27:42;30.13;29.06;31.88;;
18377;Laerm;9315;52.624;13.544;2024-01-16T01:30:10;48.68;29.22;65.15;;
18377;Laerm;9315;52.624;13.544;2024-01-16T01:32:39;50.65;29.40;68.28;;
18377;Laerm;9315;52.624;13.544;2024-01-16T01:35:07;43.38;29.43;60.23;;
18377;Laerm;9315;52.624;13.544;2024-01-16T01:37:34;54.15;29.61;68.85;;
18377;Laerm;9315;52.624;13.544;2024-01-16T01:40:02;30.37;29.51;32.63;;
18377;Laerm;9315;52.624;13.544;2024-01-16T01:42:30;46.24;29.60;61.83;;
18377;Laerm;9315;52.624;13.544;2024-01-16T01:44:57;51.71;30.12;67.77;;
18377;Laerm;9315;52.624;13.544;2024-01-16T01:47:25;37.89;29.59;55.46;;
18377;Laerm;9315;52.624;13.544;2024-01-16T01:49:53;30.25;29.31;31.40;;
18377;Laerm;9315;52.624;13.544;2024-01-16T01:52:21;30.13;29.11;31.43;;
18377;Laerm;9315;52.624;13.544;2024-01-16T01:54:50;30.02;28.98;33.25;;
18377;Laerm;9315;52.624;13.544;2024-01-16T01:57:18;51.25;29.01;68.73;;
18377;Laerm;9315;52.624;13.544;2024-01-16T01:59:46;29.80;28.91;30.79;;
18377;Laerm;9315;52.624;13.544;2024-01-16T02:02:14;49.57;29.09;65.59;;
18377;Laerm;9315;52.624;13.544;2024-01-16T02:04:43;45.25;29.29;64.45;;
18377;Laerm;9315;52.624;13.544;2024-01-16T02:07:11;56.07;29.31;70.87;;
18377;Laerm;9315;52.624;13.544;2024-01-16T02:09:38;30.32;29.00;48.60;;
18377;Laerm;9315;52.624;13.544;2024-01-16T02:12:07;30.16;28.87;37.36;;
18377;Laerm;9315;52.624;13.544;2024-01-16T02:14:35;55.61;29.13;73.64;;
18377;Laerm;9315;52.624;13.544;2024-01-16T02:17:02;53.65;29.56;68.99;;
18377;Laerm;9315;52.624;13.544;2024-01-16T02:19:30;49.18;29.48;68.43;;
18377;Laerm;9315;52.624;13.544;2024-01-16T02:22:00;62.46;29.66;78.04;;
18377;Laerm;9315;52.624;13.544;2024-01-16T02:24:30;40.15;29.50;57.66;;
18377;Laerm;9315;52.624;13.544;2024-01-16T02:26:57;58.26;30.37;74.81;;
18377;Laerm;9315;52.624;13.544;2024-01-16T02:29:25;33.10;30.04;43.84;;
18377;Laerm;9315;52.624;13.544;2024-01-16T02:31:52;59.78;29.72;75.80;;
18377;Laerm;9315;52.624;13.544;2024-01-16T02:34:20;61.11;29.84;75.95;;
18377;Laerm;9315;52.624;13.544;2024-01-16T02:36:48;61.60;30.26;76.02;;
18377;Laerm;9315;52.624;13.544;2024-01-16T02:39:15;48.14;31.03;66.05;;
18377;Laerm;9315;52.624;13.544;2024-01-16T02:41:42;48.87;31.08;64.65;;
18377;Laerm;9315;52.624;13.544;2024-01-16T02:44:10;48.20;29.97;69.01;;
18377;Laerm;9315;52.624;13.544;2024-01-16T02:46:37;63.00;31.35;78.01;;
18377;Laerm;9315;52.624;13.544;2024-01-16T02:49:06;53.92;31.41;68.07;;
18377;Laerm;9315;52.624;13.544;2024-01-16T02:51:34;50.21;31.74;65.74;;
18377;Laerm;9315;52.624;13.544;2024-01-16T02:54:02;59.98;32.77;72.58;;
18377;Laerm;9315;52.624;13.544;2024-01-16T02:56:29;51.23;32.03;68.06;;
18377;Laerm;9315;52.624;13.544;2024-01-16T02:58:56;50.03;31.68;66.21;;
18377;Laerm;9315;52.624;13.544;2024-01-16T03:01:24;53.95;31.51;67.36;;
18377;Laerm;9315;52.624;13.544;2024-01-16T03:03:51;45.70;33.10;59.76;;
18377;Laerm;9315;52.624;13.544;2024-01-16T03:06:25;58.24;31.51;73.17;;
18377;Laerm;9315;52.624;13.544;2024-01-16T03:08:52;67.35;38.63;78.19;;
18377;Laerm;9315;52.624;13.544;2024-01-16T03:11:20;57.80;33.26;72.84;;
18377;Laerm;9315;52.624;13.544;2024-01-16T03:13:47;54.02;32.08;68.51;;
18377;Laerm;9315;52.624;13.544;2024-01-16T03:16:16;53.19;32.87;69.88;;
18377;Laerm;9315;52.624;13.544;2024-01-16T03:18:44;60.55;35.66;72.37;;
18377;Laerm;9315;52.624;13.544;2024-01-16T03:21:14;58.23;39.27;72.15;;
18377;Laerm;9315;52.624;13.544;2024-01-16T03:23:41;60.90;36.48;78.20;;
18377;Laerm;9315;52.624;13.544;2024-01-16T03:26:13;58.80;34.69;68.32;;
18377;Laerm;9315;52.624;13.544;2024-01-16T03:28:41;39.51;34.53;46.95;;
18377;Laerm;9315;52.624;13.544;2024-01-16T03:31:09;55.76;36.68;67.68;;
18377;Laerm;9315;52.624;13.544;2024-01-16T03:33:37;58.88;38.34;73.07;;
18377;Laerm;9315;52.624;13.544;2024-01-16T03:36:10;61.79;38.47;76.37;;
18377;Laerm;9315;52.624;13.544;2024-01-16T03:38:42;57.52;37.93;68.53;;
18377;Laerm;9315;52.624;13.544;2024-01-16T03:41:13;60.98;35.78;74.37;;
18377;Laerm;9315;52.624;13.544;2024-01-16T03:43:41;61.98;34.07;74.17;;
18377;Laerm;9315;52.624;13.544;2024-01-16T03:46:11;58.70;35.55;68.19;;
18377;Laerm;9315;52.624;13.544;2024-01-16T03:48:38;58.37;35.26;69.62;;
18377;Laerm;9315;52.624;13.544;2024-01-16T03:51:06;55.49;32.92;67.77;;
18377;Laerm;9315;52.624;13.544;2024-01-16T03:53:34;64.26;37.39;81.69;;
18377;Laerm;9315;52.624;13.544;2024-01-16T03:56:01;65.11;38.37;78.56;;
18377;Laerm;9315;52.624;13.544;2024-01-16T03:58:29;59.23;37.78;68.68;;
18377;Laerm;9315;52.624;13.544;2024-01-16T04:00:56;58.35;38.51;67.24;;
18377;Laerm;9315;52.624;13.544;2024-01-16T04:03:24;61.65;40.50;74.98;;
18377;Laerm;9315;52.624;13.544;2024-01-16T04:05:51;59.24;40.29;67.26;;
18377;Laerm;9315;52.624;13.544;2024-01-16T04:08:19;61.49;39.07;71.33;;
18377;Laerm;9315;52.624;13.544;2024-01-16T04:10:47;61.41;40.19;75.95;;
18377;Laerm;9315;52.624;13.544;2024-01-16T04:13:14;63.43;42.01;78.94;;
18377;Laerm;9315;52.624;13.544;2024-01-16T04:15:44;62.57;42.25;76.07;;
18377;Laerm;9315;52.624;13.544;2024-01-16T04:18:12;62.15;42.35;71.71;;
18377;Laerm;9315;52.624;13.544;2024-01-16T04:20:39;63.35;41.89;70.99;;
18377;Laerm;9315;52.624;13.544;2024-01-16T04:23:08;63.14;38.83;77.24;;
18377;Laerm;9315;52.624;13.544;2024-01-16T04:25:35;63.65;39.53;76.36;;
18377;Laerm;9315;52.624;13.544;2024-01-16T04:28:03;61.27;39.70;73.19;;
18377;Laerm;9315;52.624;13.544;2024-01-16T04:30:31;63.83;42.97;75.75;;
18377;Laerm;9315;52.624;13.544;2024-01-16T04:32:59;63.29;38.05;74.99;;
18377;Laerm;9315;52.624;13.544;2024-01-16T04:35:27;62.78;38.53;70.57;;
18377;Laerm;9315;52.624;13.544;2024-01-16T04:37:54;65.33;45.28;78.89;;
18377;Laerm;9315;52.624;13.544;2024-01-16T04:40:22;61.98;43.25;72.61;;
18377;Laerm;9315;52.624;13.544;2024-01-16T04:42:49;63.91;47.48;76.27;;
18377;Laerm;9315;52.624;13.544;2024-01-16T04:45:17;63.45;46.50;74.22;;
18377;Laerm;9315;52.624;13.544;2024-01-16T04:47:44;66.05;45.21;80.72;;
18377;Laerm;9315;52.624;13.544;2024-01-16T04:50:11;63.66;45.89;73.80;;
18377;Laerm;9315;52.624;13.544;2024-01-16T04:52:39;62.40;48.81;71.74;;
18377;Laerm;9315;52.624;13.544;2024-01-16T04:55:07;61.85;46.22;73.33;;
18377;Laerm;9315;52.624;13.544;2024-01-16T04:57:35;63.75;47.71;74.73;;
18377;Laerm;9315;52.624;13.544;2024-01-16T05:00:04;69.57;53.21;83.93;;
18377;Laerm;9315;52.624;13.544;2024-01-16T05:02:35;68.94;50.40;75.31;;
18377;Laerm;9315;52.624;13.544;2024-01-16T05:05:05;69.11;49.14;81.66;;
18377;Laerm;9315;52.624;13.544;2024-01-16T05:07:32;72.10;51.92;82.94;;
18377;Laerm;9315;52.624;13.544;2024-01-16T05:10:01;69.94;44.31;82.75;;
18377;Laerm;9315;52.624;13.544;2024-01-16T05:12:30;67.97;43.69;74.81;;
18377;Laerm;9315;52.624;13.544;2024-01-16T05:14:57;69.36;42.15;78.91;;
18377;Laerm;9315;52.624;13.544;2024-01-16T05:17:25;67.60;39.43;75.86;;
18377;Laerm;9315;52.624;13.544;2024-01-16T05:19:52;70.90;49.35;82.59;;
18377;Laerm;9315;52.624;13.544;2024-01-16T05:22:20;69.05;42.50;77.80;;
18377;Laerm;9315;52.624;13.544;2024-01-16T05:24:48;72.14;42.30;85.44;;
18377;Laerm;9315;52.624;13.544;2024-01-16T05:27:17;70.55;45.45;82.05;;
18377;Laerm;9315;52.624;13.544;2024-01-16T05:29:45;72.44;46.04;83.63;;
18377;Laerm;9315;52.624;13.544;2024-01-16T05:32:14;72.02;50.13;84.38;;
18377;Laerm;9315;52.624;13.544;2024-01-16T05:34:41;70.89;48.38;84.02;;
18377;Laerm;9315;52.624;13.544;2024-01-16T05:37:14;71.24;41.02;82.34;;
18377;Laerm;9315;52.624;13.544;2024-01-16T05:39:42;70.53;41.39;76.84;;
18377;Laerm;9315;52.624;13.544;2024-01-16T05:42:09;70.62;50.49;80.63;;
18377;Laerm;9315;52.624;13.544;2024-01-16T05:44:41;69.91;42.15;80.94;;
18377;Laerm;9315;52.624;13.544;2024-01-16T05:47:09;72.56;40.65;85.34;;
18377;Laerm;9315;52.624;13.544;2024-01-16T05:49:37;70.18;49.63;78.73;;
18377;Laerm;9315;52.624;13.544;2024-01-16T05:52:05;69.87;40.18;77.22;;
18377;Laerm;9315;52.624;13.544;2024-01-16T05:54:33;72.31;50.63;85.56;;
18377;Laerm;9315;52.624;13.544;2024-01-16T05:57:01;69.34;48.16;76.70;;
18377;Laerm;9315;52.624;13.544;2024-01-16T05:59:29;67.84;39.67;75.89;;
18377;Laerm;9315;52.624;13.544;2024-01-16T06:01:58;68.45;44.10;77.65;;
18377;Laerm;9315;52.624;13.544;2024-01-16T06:04:28;70.43;51.85;82.47;;
18377;Laerm;9315;52.624;13.544;2024-01-16T06:06:56;70.49;41.61;83.23;;
18377;Laerm;9315;52.624;13.544;2024-01-16T06:09:24;72.63;43.54;83.35;;
18377;Laerm;9315;52.624;13.544;2024-01-16T06:11:51;71.60;49.11;82.68;;
18377;Laerm;9315;52.624;13.544;2024-01-16T06:14:19;70.92;48.03;82.09;;
18377;Laerm;9315;52.624;13.544;2024-01-16T06:16:50;71.43;44.93;82.09;;
18377;Laerm;9315;52.624;13.544;2024-01-16T06:19:18;68.56;42.37;79.31;;
18377;Laerm;9315;52.624;13.544;2024-01-16T06:21:45;72.04;55.78;81.30;;
18377;Laerm;9315;52.624;13.544;2024-01-16T06:24:13;72.40;62.17;83.34;;
18377;Laerm;9315;52.624;13.544;2024-01-16T06:26:40;69.79;45.02;81.16;;
18377;Laerm;9315;52.624;13.544;2024-01-16T06:29:09;70.89;50.39;80.08;;
18377;Laerm;9315;52.624;13.544;2024-01-16T06:31:54;71.62;47.89;87.88;;
18377;Laerm;9315;52.624;13.544;2024-01-16T06:34:21;72.60;52.78;83.93;;
18377;Laerm;9315;52.624;13.544;2024-01-16T06:36:49;73.34;59.64;84.83;;
18377;Laerm;9315;52.624;13.544;2024-01-16T06:39:16;68.66;59.23;78.19;;
18377;Laerm;9315;52.624;13.544;2024-01-16T06:41:52;66.74;56.67;77.94;;
18377;Laerm;9315;52.624;13.544;2024-01-16T06:44:22;65.73;56.46;75.29;;
18377;Laerm;9315;52.624;13.544;2024-01-16T06:46:50;68.49;55.56;78.25;;
18377;Laerm;9315;52.624;13.544;2024-01-16T06:49:19;67.14;55.69;76.36;;
18377;Laerm;9315;52.624;13.544;2024-01-16T06:51:51;70.66;55.89;80.95;;
18377;Laerm;9315;52.624;13.544;2024-01-16T06:54:18;70.19;45.28;78.65;;
18377;Laerm;9315;52.624;13.544;2024-01-16T06:56:47;72.59;47.87;83.44;;
18377;Laerm;9315;52.624;13.544;2024-01-16T06:59:16;72.86;50.49;82.17;;
18377;Laerm;9315;52.624;13.544;2024-01-16T07:01:47;71.56;46.77;82.45;;
18377;Laerm;9315;52.624;13.544;2024-01-16T07:04:14;72.84;58.88;82.55;;
18377;Laerm;9315;52.624;13.544;2024-01-16T07:06:42;72.25;45.96;84.94;;
18377;Laerm;9315;52.624;13.544;2024-01-16T07:09:10;72.14;42.62;80.86;;
18377;Laerm;9315;52.624;13.544;2024-01-16T07:11:39;70.49;41.59;79.24;;
18377;Laerm;9315;52.624;13.544;2024-01-16T07:14:11;71.82;47.11;83.92;;
18377;Laerm;9315;52.624;13.544;2024-01-16T07:16:39;72.02;47.84;82.21;;
18377;Laerm;9315;52.624;13.544;2024-01-16T07:19:07;71.89;51.22;83.39;;
18377;Laerm;9315;52.624;13.544;2024-01-16T07:21:35;74.60;50.42;84.38;;
18377;Laerm;9315;52.624;13.544;2024-01-16T07:24:02;72.49;45.04;82.69;;
18377;Laerm;9315;52.624;13.544;2024-01-16T07:26:30;70.97;47.89;82.00;;
18377;Laerm;9315;52.624;13.544;2024-01-16T07:28:57;71.70;45.60;79.44;;
18377;Laerm;9315;52.624;13.544;2024-01-16T07:31:26;71.31;47.09;81.01;;
18377;Laerm;9315;52.624;13.544;2024-01-16T07:33:53;72.22;49.09;83.16;;
18377;Laerm;9315;52.624;13.544;2024-01-16T07:36:21;71.70;48.87;80.43;;
18377;Laerm;9315;52.624;13.544;2024-01-16T07:38:53;72.01;50.50;82.19;;
18377;Laerm;9315;52.624;13.544;2024-01-16T07:41:28;72.36;48.54;83.97;;
18377;Laerm;9315;52.624;13.544;2024-01-16T07:43:55;72.99;54.99;83.79;;
18377;Laerm;9315;52.624;13.544;2024-01-16T07:46:24;71.24;49.88;82.67;;
18377;Laerm;9315;52.624;13.544;2024-01-16T07:48:52;73.50;48.75;86.03;;
18377;Laerm;9315;52.624;13.544;2024-01-16T07:51:20;69.23;49.13;77.50;;
18377;Laerm;9315;52.624;13.544;2024-01-16T07:53:47;72.47;47.21;82.41;;
18377;Laerm;9315;52.624;13.544;2024-01-16T07:56:16;72.26;48.37;81.69;;
18377;Laerm;9315;52.624;13.544;2024-01-16T07:58:43;71.38;47.44;82.20;;
18377;Laerm;9315;52.624;13.544;2024-01-16T08:01:11;73.35;51.15;83.28;;
18377;Laerm;9315;52.624;13.544;2024-01-16T08:03:39;74.25;47.92;84.62;;
18377;Laerm;9315;52.624;13.544;2024-01-16T08:06:07;74.75;49.67;85.07;;
18377;Laerm;9315;52.624;13.544;2024-01-16T08:08:35;73.54;47.91;85.48;;
18377;Laerm;9315;52.624;13.544;2024-01-16T08:11:03;73.56;46.48;83.07;;
18377;Laerm;9315;52.624;13.544;2024-01-16T08:13:30;72.83;50.42;80.27;;
18377;Laerm;9315;52.624;13.544;2024-01-16T08:15:58;74.51;51.32;84.66;;
18377;Laerm;9315;52.624;13.544;2024-01-16T08:18:25;70.71;48.28;82.76;;
18377;Laerm;9315;52.624;13.544;2024-01-16T08:20:55;73.81;53.23;85.13;;
18377;Laerm;9315;52.624;13.544;2024-01-16T08:23:23;74.80;49.99;85.49;;
18377;Laerm;9315;52.624;13.544;2024-01-16T08:25:51;75.05;52.41;84.01;;
18377;Laerm;9315;52.624;13.544;2024-01-16T08:28:19;70.49;48.81;80.75;;
18377;Laerm;9315;52.624;13.544;2024-01-16T08:30:49;73.23;48.50;84.53;;
18377;Laerm;9315;52.624;13.544;2024-01-16T08:33:17;75.15;50.55;84.21;;
18377;Laerm;9315;52.624;13.544;2024-01-16T08:35:50;74.98;48.96;83.98;;
18377;Laerm;9315;52.624;13.544;2024-01-16T08:38:18;72.77;49.20;82.67;;
18377;Laerm;9315;52.624;13.544;2024-01-16T08:40:45;74.48;50.16;84.37;;
18377;Laerm;9315;52.624;13.544;2024-01-16T08:43:15;72.93;50.59;81.80;;
18377;Laerm;9315;52.624;13.544;2024-01-16T08:45:48;72.00;50.38;80.47;;
18377;Laerm;9315;52.624;13.544;2024-01-16T08:48:16;72.48;48.70;80.18;;
18377;Laerm;9315;52.624;13.544;2024-01-16T08:50:44;74.53;48.88;85.99;;
18377;Laerm;9315;52.624;13.544;2024-01-16T08:53:12;74.24;50.03;83.48;;
18377;Laerm;9315;52.624;13.544;2024-01-16T08:55:40;74.17;49.19;81.23;;
18377;Laerm;9315;52.624;13.544;2024-01-16T08:58:08;72.37;46.91;82.33;;
18377;Laerm;9315;52.624;13.544;2024-01-16T09:00:35;73.33;47.40;82.23;;
18377;Laerm;9315;52.624;13.544;2024-01-16T09:03:04;72.70;47.03;83.05;;
18377;Laerm;9315;52.624;13.544;2024-01-16T09:05:31;74.74;51.81;85.55;;
18377;Laerm;9315;52.624;13.544;2024-01-16T09:08:02;72.57;48.44;81.36;;
18377;Laerm;9315;52.624;13.544;2024-01-16T09:10:30;74.68;53.30;83.26;;
18377;Laerm;9315;52.624;13.544;2024-01-16T09:12:58;71.42;49.71;82.15;;
18377;Laerm;9315;52.624;13.544;2024-01-16T09:15:26;72.69;48.72;80.75;;
18377;Laerm;9315;52.624;13.544;2024-01-16T09:17:53;71.97;51.45;83.72;;
18377;Laerm;9315;52.624;13.544;2024-01-16T09:20:21;74.10;52.97;84.98;;
18377;Laerm;9315;52.624;13.544;2024-01-16T09:22:49;73.64;48.61;84.34;;
18377;Laerm;9315;52.624;13.544;2024-01-16T09:25:16;73.24;53.46;82.93;;
18377;Laerm;9315;52.624;13.544;2024-01-16T09:27:45;73.32;52.85;82.38;;
18377;Laerm;9315;52.624;13.544;2024-01-16T09:30:13;73.59;51.81;84.59;;
18377;Laerm;9315;52.624;13.544;2024-01-16T09:32:40;72.61;51.74;82.61;;
18377;Laerm;9315;52.624;13.544;2024-01-16T09:35:10;72.55;48.71;82.92;;
18377;Laerm;9315;52.624;13.544;2024-01-16T09:37:38;73.06;50.56;83.68;;
18377;Laerm;9315;52.624;13.544;2024-01-16T09:40:07;70.42;49.70;79.29;;
18377;Laerm;9315;52.624;13.544;2024-01-16T09:42:36;73.27;46.95;82.06;;
18377;Laerm;9315;52.624;13.544;2024-01-16T09:45:04;73.22;50.49;84.66;;
18377;Laerm;9315;52.624;13.544;2024-01-16T09:47:33;73.81;47.76;82.94;;
18377;Laerm;9315;52.624;13.544;2024-01-16T09:50:02;73.14;51.09;81.63;;
18377;Laerm;9315;52.624;13.544;2024-01-16T09:52:30;71.77;45.87;80.39;;
18377;Laerm;9315;52.624;13.544;2024-01-16T09:54:58;71.97;49.84;80.92;;
18377;Laerm;9315;52.624;13.544;2024-01-16T09:57:26;71.96;49.59;80.67;;
18377;Laerm;9315;52.624;13.544;2024-01-16T09:59:57;73.58;51.80;85.92;;
18377;Laerm;9315;52.624;13.544;2024-01-16T10:02:25;72.40;45.80;84.47;;
18377;Laerm;9315;52.624;13.544;2024-01-16T10:04:54;72.54;50.54;84.19;;
18377;Laerm;9315;52.624;13.544;2024-01-16T10:07:21;71.89;50.77;80.50;;
18377;Laerm;9315;52.624;13.544;2024-01-16T10:09:58;75.35;52.66;85.01;;
18377;Laerm;9315;52.624;13.544;2024-01-16T10:12:25;72.32;46.71;82.91;;
18377;Laerm;9315;52.624;13.544;2024-01-16T10:14:55;71.83;48.92;81.45;;
18377;Laerm;9315;52.624;13.544;2024-01-16T10:17:40;72.75;49.92;81.17;;
18377;Laerm;9315;52.624;13.544;2024-01-16T10:20:10;74.08;51.67;83.22;;
18377;Laerm;9315;52.624;13.544;2024-01-16T10:22:41;73.02;48.46;82.43;;
18377;Laerm;9315;52.624;13.544;2024-01-16T10:25:19;74.52;49.18;84.66;;
18377;Laerm;9315;52.624;13.544;2024-01-16T10:27:49;74.04;51.49;83.23;;
18377;Laerm;9315;52.624;13.544;2024-01-16T10:30:21;72.08;50.18;81.72;;
18377;Laerm;9315;52.624;13.544;2024-01-16T10:32:50;72.50;53.72;79.84;;
18377;Laerm;9315;52.624;13.544;2024-01-16T10:35:18;70.30;53.54;78.84;;
18377;Laerm;9315;52.624;13.544;2024-01-16T10:37:53;72.96;54.45;82.40;;
18377;Laerm;9315;52.624;13.544;2024-01-16T10:40:24;71.69;50.16;81.74;;
18377;Laerm;9315;52.624;13.544;2024-01-16T10:43:04;73.32;51.39;85.35;;
18377;Laerm;9315;52.624;13.544;2024-01-16T10:45:33;72.86;50.64;81.68;;
18377;Laerm;9315;52.624;13.544;2024-01-16T10:48:06;71.44;47.87;82.47;;
18377;Laerm;9315;52.624;13.544;2024-01-16T10:50:37;70.83;48.31;81.78;;
18377;Laerm;9315;52.624;13.544;2024-01-16T10:53:08;69.85;47.62;80.31;;
18377;Laerm;9315;52.624;13.544;2024-01-16T10:55:51;71.79;48.94;79.91;;
18377;Laerm;9315;52.624;13.544;2024-01-16T10:58:22;71.23;48.62;82.91;;
18377;Laerm;9315;52.624;13.544;2024-01-16T11:00:53;72.07;49.13;86.60;;
18377;Laerm;9315;52.624;13.544;2024-01-16T11:03:48;73.20;49.97;82.01;;
18377;Laerm;9315;52.624;13.544;2024-01-16T11:06:18;71.82;49.30;81.45;;
18377;Laerm;9315;52.624;13.544;2024-01-16T11:08:50;70.08;49.01;78.67;;
18377;Laerm;9315;52.624;13.544;2024-01-16T11:11:19;71.85;49.47;81.71;;
18377;Laerm;9315;52.624;13.544;2024-01-16T11:13:47;72.87;48.14;83.54;;
18377;Laerm;9315;52.624;13.544;2024-01-16T11:16:16;73.43;53.16;85.90;;
18377;Laerm;9315;52.624;13.544;2024-01-16T11:18:44;70.92;46.57;80.64;;
18377;Laerm;9315;52.624;13.544;2024-01-16T11:21:14;71.08;49.78;80.95;;
18377;Laerm;9315;52.624;13.544;2024-01-16T11:23:45;73.49;51.69;84.39;;
18377;Laerm;9315;52.624;13.544;2024-01-16T11:26:46;73.66;49.35;82.74;;
18377;Laerm;9315;52.624;13.544;2024-01-16T11:31:56;72.90;50.12;82.95;;
18377;Laerm;9315;52.624;13.544;2024-01-16T11:34:55;71.83;52.34;84.14;;
18377;Laerm;9315;52.624;13.544;2024-01-16T11:37:32;73.12;46.44;85.00;;
18377;Laerm;9315;52.624;13.544;2024-01-16T11:42:51;72.52;47.44;80.69;;
18377;Laerm;9315;52.624;13.544;2024-01-16T11:48:16;73.73;47.56;81.73;;
18377;Laerm;9315;52.624;13.544;2024-01-16T11:50:45;71.49;50.29;81.98;;
18377;Laerm;9315;52.624;13.544;2024-01-16T11:53:37;73.77;53.76;83.05;;
18377;Laerm;9315;52.624;13.544;2024-01-16T12:01:58;76.16;53.19;85.01;;
18377;Laerm;9315;52.624;13.544;2024-01-16T12:04:31;74.30;49.34;86.79;;
18377;Laerm;9315;52.624;13.544;2024-01-16T12:07:00;73.84;51.85;81.92;;
18377;Laerm;9315;52.624;13.544;2024-01-16T12:09:30;75.26;54.56;84.03;;
18377;Laerm;9315;52.624;13.544;2024-01-16T12:12:01;74.10;50.01;85.56;;
18377;Laerm;9315;52.624;13.544;2024-01-16T12:14:30;74.62;49.12;82.42;;
18377;Laerm;9315;52.624;13.544;2024-01-16T12:17:13;74.26;51.14;82.25;;
18377;Laerm;9315;52.624;13.544;2024-01-16T12:19:41;76.56;53.24;86.05;;
18377;Laerm;9315;52.624;13.544;2024-01-16T12:22:16;74.41;50.11;84.12;;
18377;Laerm;9315;52.624;13.544;2024-01-16T12:24:45;74.12;50.96;83.10;;
18377;Laerm;9315;52.624;13.544;2024-01-16T12:27:14;75.63;51.51;85.19;;
18377;Laerm;9315;52.624;13.544;2024-01-16T12:29:43;73.95;49.05;82.58;;
18377;Laerm;9315;52.624;13.544;2024-01-16T12:32:11;73.93;48.74;83.78;;
18377;Laerm;9315;52.624;13.544;2024-01-16T12:34:47;73.69;51.78;84.42;;
18377;Laerm;9315;52.624;13.544;2024-01-16T12:37:16;74.30;50.92;84.11;;
18377;Laerm;9315;52.624;13.544;2024-01-16T12:39:45;74.97;50.56;83.58;;
18377;Laerm;9315;52.624;13.544;2024-01-16T12:42:14;74.60;52.80;85.06;;
18377;Laerm;9315;52.624;13.544;2024-01-16T12:44:41;71.78;49.98;80.34;;
18377;Laerm;9315;52.624;13.544;2024-01-16T12:47:09;73.22;50.51;82.99;;
18377;Laerm;9315;52.624;13.544;2024-01-16T12:49:43;75.13;51.18;83.25;;
18377;Laerm;9315;52.624;13.544;2024-01-16T12:52:23;74.02;53.14;83.71;;
18377;Laerm;9315;52.624;13.544;2024-01-16T12:55:00;74.44;49.91;82.70;;
18377;Laerm;9315;52.624;13.544;2024-01-16T12:57:28;73.98;49.80;83.54;;
18377;Laerm;9315;52.624;13.544;2024-01-16T12:59:56;73.63;51.41;85.28;;
18377;Laerm;9315;52.624;13.544;2024-01-16T13:02:28;76.11;53.36;83.53;;
18377;Laerm;9315;52.624;13.544;2024-01-16T13:05:00;73.10;51.15;82.60;;
18377;Laerm;9315;52.624;13.544;2024-01-16T13:07:30;73.58;48.82;83.49;;
18377;Laerm;9315;52.624;13.544;2024-01-16T13:10:12;75.27;50.69;83.68;;
18377;Laerm;9315;52.624;13.544;2024-01-16T13:12:40;74.09;51.10;83.51;;
18377;Laerm;9315;52.624;13.544;2024-01-16T13:15:08;74.16;54.12;83.53;;
18377;Laerm;9315;52.624;13.544;2024-01-16T13:17:38;73.94;49.43;82.27;;
18377;Laerm;9315;52.624;13.544;2024-01-16T13:20:08;75.03;54.02;83.36;;
18377;Laerm;9315;52.624;13.544;2024-01-16T13:22:37;74.21;51.23;82.19;;
18377;Laerm;9315;52.624;13.544;2024-01-16T13:25:14;75.15;51.57;81.26;;
18377;Laerm;9315;52.624;13.544;2024-01-16T13:27:42;74.89;53.04;86.08;;
18377;Laerm;9315;52.624;13.544;2024-01-16T13:30:10;73.28;49.14;83.63;;
18377;Laerm;9315;52.624;13.544;2024-01-16T13:32:38;74.18;51.67;86.60;;
18377;Laerm;9315;52.624;13.544;2024-01-16T13:35:06;73.42;50.44;81.44;;
18377;Laerm;9315;52.624;13.544;2024-01-16T13:37:36;74.30;54.22;83.01;;
18377;Laerm;9315;52.624;13.544;2024-01-16T13:40:09;75.69;54.98;85.14;;
18377;Laerm;9315;52.624;13.544;2024-01-16T13:42:43;72.61;51.59;79.31;;
18377;Laerm;9315;52.624;13.544;2024-01-16T13:45:11;74.45;51.03;84.30;;
18377;Laerm;9315;52.624;13.544;2024-01-16T13:47:40;74.76;53.83;85.47;;
18377;Laerm;9315;52.624;13.544;2024-01-16T13:50:09;73.21;56.27;81.01;;
18377;Laerm;9315;52.624;13.544;2024-01-16T13:52:37;74.06;53.59;84.92;;
18377;Laerm;9315;52.624;13.544;2024-01-16T13:55:07;74.29;55.79;83.35;;
18377;Laerm;9315;52.624;13.544;2024-01-16T13:57:34;80.22;52.91;104.01;;
18377;Laerm;9315;52.624;13.544;2024-01-16T14:00:12;73.48;51.00;82.19;;
18377;Laerm;9315;52.624;13.544;2024-01-16T14:02:46;71.17;52.94;78.93;;
18377;Laerm;9315;52.624;13.544;2024-01-16T14:05:17;73.17;54.49;84.39;;
18377;Laerm;9315;52.624;13.544;2024-01-16T14:07:50;75.33;52.60;84.30;;
18377;Laerm;9315;52.624;13.544;2024-01-16T14:10:22;73.17;52.27;80.67;;